| time (UTC) | temp F | wind direction | speed MPH | gust MPH | rain 1hr in | rain 24hr in | rain mn in | humidity % | barometer mb |
| 20260510230055 | 66 | 308 | 0.0 | 4.0 | 0.04 | 0.04 | 0.04 | 85 | 1014.9 |
| 20260510224556 | 68 | 0 | 2.0 | 9.0 | 0.01 | 0.01 | 0.01 | 78 | 1015.3 |
| 20260510223056 | 70 | 203 | 0.0 | 3.0 | 0.00 | 0.00 | 0.00 | 63 | 1014.1 |
| 20260510221559 | 71 | 99 | 0.0 | 2.0 | 0.00 | 0.00 | 0.00 | 62 | 1013.3 |
| 20260510220056 | 71 | 0 | 0.0 | 2.0 | 0.00 | 0.00 | 0.00 | 63 | 1013.4 |
| 20260510214555 | 71 | 89 | 0.0 | 6.0 | 0.00 | 0.00 | 0.00 | 63 | 1013.4 |
| 20260510213105 | 72 | 347 | 1.0 | 4.0 | 0.00 | 0.00 | 0.00 | 66 | 1013.3 |
| 20260510211555 | 73 | 96 | 2.0 | 4.0 | 0.00 | 0.00 | 0.00 | 64 | 1013.0 |
| 20260510210055 | 75 | 0 | 0.0 | 3.0 | 0.00 | 0.00 | 0.00 | 61 | 1012.8 |
| 20260510204553 | 78 | 93 | 2.0 | 5.0 | 0.00 | 0.00 | 0.00 | 57 | 1012.5 |
| 20260510203055 | 80 | 321 | 0.0 | 4.0 | 0.00 | 0.00 | 0.00 | 52 | 1012.5 |
| 20260510201558 | 80 | 306 | 2.0 | 5.0 | 0.00 | 0.00 | 0.00 | 51 | 1012.5 |
| 20260510200059 | 81 | 311 | 0.0 | 12.0 | 0.00 | 0.00 | 0.00 | 49 | 1012.6 |
| 20260510194601 | 82 | 251 | 2.0 | 7.0 | 0.00 | 0.00 | 0.00 | 44 | 1012.8 |
| 20260510193100 | 81 | 205 | 1.0 | 7.0 | 0.00 | 0.00 | 0.00 | 45 | 1012.9 |
| 20260510191558 | 81 | 347 | 1.0 | 6.0 | 0.00 | 0.00 | 0.00 | 47 | 1013.0 |
| 20260510190107 | 80 | 139 | 1.0 | 6.0 | 0.00 | 0.00 | 0.00 | 44 | 1013.2 |
| 20260510184556 | 82 | 170 | 1.0 | 5.0 | 0.00 | 0.00 | 0.00 | 43 | 1013.1 |
| 20260510183056 | 80 | 186 | 2.0 | 9.0 | 0.00 | 0.00 | 0.00 | 43 | 1013.3 |
| 20260510181553 | 80 | 170 | 4.0 | 10.0 | 0.00 | 0.00 | 0.00 | 45 | 1013.3 |
| 20260510180107 | 80 | 165 | 3.0 | 10.0 | 0.00 | 0.00 | 0.00 | 44 | 1013.4 |
| 20260510174606 | 80 | 345 | 1.0 | 6.0 | 0.00 | 0.00 | 0.00 | 49 | 1013.6 |
| 20260510173055 | 79 | 164 | 4.0 | 8.0 | 0.00 | 0.00 | 0.00 | 48 | 1013.5 |
| 20260510171602 | 78 | 188 | 0.0 | 5.0 | 0.00 | 0.00 | 0.00 | 49 | 1013.5 |
| 20260510170056 | 77 | 241 | 2.0 | 9.0 | 0.00 | 0.00 | 0.00 | 50 | 1013.7 |
| 20260510164610 | 76 | 179 | 2.0 | 7.0 | 0.00 | 0.00 | 0.00 | 57 | 1013.7 |
| 20260510163139 | 76 | 172 | 0.0 | 6.0 | 0.00 | 0.00 | 0.00 | 62 | 1013.7 |
| 20260510161557 | 75 | 301 | 1.0 | 10.0 | 0.00 | 0.00 | 0.00 | 60 | 1013.8 |
| 20260510160101 | 75 | 0 | 1.0 | 7.0 | 0.00 | 0.00 | 0.00 | 62 | 1013.8 |
| 20260510154556 | 74 | 0 | 0.0 | 6.0 | 0.00 | 0.00 | 0.00 | 61 | 1013.8 |
| 20260510153103 | 74 | 0 | 2.0 | 5.0 | 0.00 | 0.00 | 0.00 | 65 | 1013.9 |
| 20260510151628 | 73 | 0 | 2.0 | 5.0 | 0.00 | 0.00 | 0.00 | 64 | 1013.8 |
| 20260510144605 | 71 | 266 | 2.0 | 3.0 | 0.00 | 0.00 | 0.00 | 69 | 1013.8 |
| 20260510143107 | 69 | 0 | 1.0 | 4.0 | 0.00 | 0.00 | 0.00 | 72 | 1013.8 |
| 20260510141601 | 68 | 0 | 0.0 | 3.0 | 0.00 | 0.00 | 0.00 | 76 | 1013.9 |
| 20260510140053 | 67 | 166 | 2.0 | 5.0 | 0.00 | 0.00 | 0.00 | 75 | 1013.8 |
| 20260510134638 | 66 | 0 | 0.0 | 3.0 | 0.00 | 0.00 | 0.00 | 79 | 1013.9 |
| 20260510133054 | 64 | 322 | 2.0 | 5.0 | 0.00 | 0.00 | 0.00 | 81 | 1013.9 |
| 20260510131557 | 62 | 11 | 0.0 | 1.0 | 0.00 | 0.00 | 0.00 | 86 | 1014.0 |
| 20260510130055 | 60 | 0 | 0.0 | 3.0 | 0.00 | 0.00 | 0.00 | 92 | 1014.0 |
| 20260510124600 | 58 | 330 | 0.0 | 3.0 | 0.00 | 0.00 | 0.00 | 93 | 1014.0 |
| 20260510123058 | 57 | 316 | 1.0 | 5.0 | 0.00 | 0.00 | 0.00 | 97 | 1013.9 |
| 20260510121551 | 55 | 0 | 0.0 | 4.0 | 0.00 | 0.00 | 0.00 | 97 | 1013.7 |
| 20260510120051 | 54 | 352 | 0.0 | 3.0 | 0.00 | 0.00 | 0.00 | 98 | 1013.7 |
| 20260510114557 | 53 | 0 | 1.0 | 3.0 | 0.00 | 0.00 | 0.00 | 98 | 1013.6 |
| 20260510113053 | 52 | 325 | 0.0 | 1.0 | 0.00 | 0.00 | 0.00 | 98 | 1013.1 |
| 20260510111555 | 51 | 0 | 0.0 | 1.0 | 0.00 | 0.00 | 0.00 | 98 | 1013.0 |
| 20260510110055 | 51 | 0 | 0.0 | 3.0 | 0.00 | 0.00 | 0.00 | 98 | 1013.0 |
| 20260510104554 | 50 | 0 | 0.0 | 2.0 | 0.00 | 0.00 | 0.00 | 97 | 1012.2 |
| 20260510103054 | 49 | 0 | 0.0 | 0.0 | 0.00 | 0.00 | 0.00 | 96 | 1012.1 |
| 20260510101555 | 50 | 0 | 0.0 | 0.0 | 0.00 | 0.00 | 0.00 | 96 | 1012.3 |
| 20260510100109 | 50 | 0 | 0.0 | 0.0 | 0.00 | 0.00 | 0.00 | 96 | 1012.1 |
| 20260510094603 | 51 | 0 | 0.0 | 2.0 | 0.00 | 0.00 | 0.00 | 96 | 1012.0 |
| 20260510093101 | 51 | 0 | 0.0 | 3.0 | 0.00 | 0.00 | 0.00 | 97 | 1012.0 |
| 20260510091551 | 51 | 325 | 2.0 | 6.0 | 0.00 | 0.00 | 0.00 | 97 | 1011.8 |
| 20260510090058 | 50 | 0 | 0.0 | 0.0 | 0.00 | 0.00 | 0.00 | 96 | 1011.8 |
| 20260510084610 | 50 | 0 | 0.0 | 0.0 | 0.00 | 0.00 | 0.00 | 96 | 1011.4 |
| 20260510083052 | 50 | 0 | 0.0 | 0.0 | 0.00 | 0.00 | 0.00 | 96 | 1011.3 |
| 20260510081559 | 50 | 0 | 0.0 | 0.0 | 0.00 | 0.00 | 0.00 | 96 | 1011.2 |
| 20260510080052 | 49 | 0 | 0.0 | 0.0 | 0.00 | 0.00 | 0.00 | 96 | 1011.2 |
| 20260510074553 | 49 | 0 | 0.0 | 0.0 | 0.00 | 0.00 | 0.00 | 95 | 1011.0 |
| 20260510073102 | 50 | 0 | 0.0 | 0.0 | 0.00 | 0.00 | 0.00 | 95 | 1010.9 |
| 20260510071554 | 50 | 0 | 0.0 | 0.0 | 0.00 | 0.00 | 0.00 | 95 | 1010.8 |
| 20260510070057 | 50 | 0 | 0.0 | 0.0 | 0.00 | 0.00 | 0.00 | 95 | 1010.7 |
| 20260510064553 | 50 | 0 | 0.0 | 0.0 | 0.00 | 0.00 | 0.00 | 95 | 1010.6 |
| 20260510063052 | 50 | 0 | 0.0 | 0.0 | 0.00 | 0.00 | 0.00 | 95 | 1010.8 |
| 20260510061556 | 51 | 0 | 0.0 | 0.0 | 0.00 | 0.00 | 0.00 | 95 | 1011.1 |
| 20260510060054 | 51 | 0 | 0.0 | 0.0 | 0.00 | 0.00 | 0.00 | 94 | 1011.0 |
| 20260510054555 | 51 | 0 | 0.0 | 0.0 | 0.00 | 0.00 | 0.00 | 95 | 1011.0 |
| 20260510053100 | 51 | 0 | 0.0 | 0.0 | 0.00 | 0.00 | 0.00 | 94 | 1011.1 |
| 20260510051552 | 51 | 0 | 0.0 | 0.0 | 0.00 | 0.00 | 0.00 | 94 | 1011.2 |
| 20260510050057 | 51 | 0 | 0.0 | 0.0 | 0.00 | 0.00 | 0.00 | 94 | 1011.3 |
| 20260510044558 | 51 | 0 | 0.0 | 0.0 | 0.00 | 0.00 | 0.00 | 94 | 1011.2 |
| 20260510043110 | 52 | 0 | 0.0 | 0.0 | 0.00 | 0.00 | 0.00 | 93 | 1011.4 |
| 20260510041554 | 52 | 0 | 0.0 | 0.0 | 0.00 | 0.00 | 0.00 | 93 | 1011.4 |
| 20260510040103 | 52 | 0 | 0.0 | 0.0 | 0.00 | 0.00 | 0.00 | 92 | 1011.3 |
| 20260510034559 | 52 | 0 | 0.0 | 0.0 | 0.00 | 0.00 | 0.00 | 93 | 1011.3 |
| 20260510033133 | 52 | 0 | 0.0 | 0.0 | 0.00 | 0.00 | 0.00 | 92 | 1011.1 |
| 20260510031610 | 53 | 0 | 0.0 | 0.0 | 0.00 | 0.00 | 0.00 | 92 | 1011.1 |
| 20260510030100 | 53 | 0 | 0.0 | 0.0 | 0.00 | 0.00 | 0.00 | 91 | 1011.0 |
| 20260510024553 | 53 | 0 | 0.0 | 0.0 | 0.00 | 0.00 | 0.00 | 91 | 1010.9 |
| 20260510023055 | 54 | 0 | 0.0 | 0.0 | 0.00 | 0.00 | 0.00 | 91 | 1010.9 |
| 20260510021556 | 54 | 0 | 0.0 | 0.0 | 0.00 | 0.00 | 0.00 | 90 | 1010.9 |
| 20260510020054 | 54 | 0 | 0.0 | 0.0 | 0.00 | 0.00 | 0.00 | 89 | 1010.8 |
| 20260510014555 | 55 | 0 | 0.0 | 0.0 | 0.00 | 0.00 | 0.00 | 88 | 1010.9 |
| 20260510013052 | 55 | 0 | 0.0 | 0.0 | 0.00 | 0.00 | 0.00 | 87 | 1010.8 |
| 20260510011601 | 56 | 0 | 0.0 | 0.0 | 0.00 | 0.00 | 0.00 | 86 | 1010.7 |
| 20260510010112 | 57 | 0 | 0.0 | 0.0 | 0.00 | 0.00 | 0.00 | 85 | 1010.4 |
| 20260510004601 | 57 | 0 | 0.0 | 0.0 | 0.00 | 0.00 | 0.00 | 84 | 1010.4 |
| 20260510003110 | 58 | 0 | 0.0 | 0.0 | 0.00 | 0.00 | 0.00 | 82 | 1010.3 |
| 20260510001603 | 59 | 0 | 0.0 | 0.0 | 0.00 | 0.00 | 0.00 | 81 | 1010.3 |
| 20260510000109 | 60 | 0 | 0.0 | 0.0 | 0.00 | 0.00 | 0.00 | 79 | 1010.3 |
| 20260509234602 | 60 | 0 | 0.0 | 2.0 | 0.00 | 0.00 | 0.00 | 79 | 1010.3 |
| 20260509233057 | 61 | 354 | 0.0 | 3.0 | 0.00 | 0.00 | 0.00 | 78 | 1010.2 |
| 20260509231556 | 61 | 0 | 0.0 | 3.0 | 0.00 | 0.00 | 0.00 | 78 | 1010.2 |